createdAt,value
2018-07-19T17:48:14.417Z,63.50
2018-07-19T17:50:43.463Z,64.40
2018-07-19T17:53:12.566Z,64.00
2018-07-19T17:55:41.822Z,63.30
2018-07-19T17:58:10.956Z,62.60
2018-07-19T18:00:40.184Z,62.20
2018-07-19T18:03:09.281Z,64.00
2018-07-19T18:05:38.445Z,64.10
2018-07-19T18:08:07.507Z,67.60
2018-07-19T18:10:37.279Z,67.80
2018-07-19T18:13:06.359Z,67.10
2018-07-19T18:15:35.502Z,69.00
2018-07-19T18:18:04.796Z,71.20
2018-07-19T18:20:33.859Z,73.90
2018-07-19T18:23:02.936Z,74.20
2018-07-19T18:25:31.995Z,74.60
2018-07-19T18:28:01.069Z,75.90
2018-07-19T18:30:30.287Z,76.00
2018-07-19T18:32:59.353Z,76.70
2018-07-19T18:35:28.391Z,76.20
2018-07-19T18:37:57.664Z,75.40
2018-07-19T18:40:26.894Z,75.90
2018-07-19T18:42:55.988Z,77.20
2018-07-19T18:45:25.048Z,78.40
2018-07-19T18:47:54.173Z,78.40
2018-07-19T18:50:23.332Z,77.40
2018-07-19T18:52:52.414Z,76.40
2018-07-19T18:55:21.514Z,77.40
2018-07-19T18:57:50.553Z,77.00
2018-07-19T19:00:19.614Z,78.00
2018-07-19T19:02:48.728Z,79.80
2018-07-19T19:05:17.972Z,80.70
2018-07-19T19:07:47.035Z,81.10
2018-07-19T19:10:16.089Z,82.00
2018-07-19T19:12:45.380Z,82.50
2018-07-19T19:15:14.353Z,83.20
2018-07-19T19:17:43.415Z,83.90
2018-07-19T19:20:12.444Z,84.20
2018-07-19T19:22:41.499Z,84.50
2018-07-19T19:25:10.553Z,84.50
2018-07-19T19:27:39.635Z,84.40
2018-07-19T19:30:08.701Z,84.60
2018-07-19T19:32:37.845Z,84.40
2018-07-19T19:35:06.948Z,84.20
2018-07-19T19:37:36.015Z,84.20
2018-07-19T19:40:05.084Z,84.80
2018-07-19T19:42:34.129Z,84.80
2018-07-19T19:45:03.255Z,85.60
2018-07-19T19:47:32.298Z,86.40
2018-07-19T19:50:01.350Z,87.50
2018-07-19T19:52:30.447Z,87.60
2018-07-19T19:54:59.506Z,88.70
2018-07-19T19:57:28.619Z,88.80
2018-07-19T19:59:58.124Z,89.20
2018-07-19T20:02:27.179Z,89.70
2018-07-19T20:04:56.319Z,90.10
2018-07-19T20:07:25.397Z,90.40
2018-07-19T20:09:54.469Z,90.50
2018-07-19T20:12:23.668Z,90.80
2018-07-19T20:14:52.743Z,91.00
2018-07-19T20:17:21.815Z,90.90
2018-07-19T20:19:50.876Z,91.20
2018-07-19T20:22:19.946Z,91.30
2018-07-19T20:24:49.011Z,91.40
2018-07-19T20:27:18.251Z,91.20
2018-07-19T20:29:47.424Z,91.60
2018-07-19T20:32:16.481Z,91.70
2018-07-19T20:34:45.556Z,91.80
2018-07-19T20:37:14.628Z,92.10
2018-07-19T20:39:43.690Z,92.10
2018-07-19T20:42:12.744Z,92.40
2018-07-19T20:44:41.823Z,92.50
2018-07-19T20:47:10.898Z,92.70
2018-07-19T20:49:39.968Z,92.80
2018-07-19T20:52:09.065Z,93.00
2018-07-19T20:54:38.110Z,93.20
2018-07-19T20:57:07.155Z,93.40
2018-07-19T20:59:36.407Z,93.40
2018-07-19T21:02:05.703Z,93.40
2018-07-19T21:04:34.890Z,93.70
2018-07-19T21:07:03.945Z,93.70
2018-07-19T21:09:33.061Z,93.90
2018-07-19T21:12:02.451Z,93.90
2018-07-19T21:14:31.883Z,94.00
2018-07-19T21:17:01.283Z,94.10
2018-07-19T21:19:30.399Z,94.30
2018-07-19T21:21:59.442Z,94.20
2018-07-19T21:24:28.499Z,94.30
2018-07-19T21:26:57.578Z,94.90
2018-07-19T21:29:26.675Z,94.40
2018-07-19T21:31:55.739Z,94.30
2018-07-19T21:34:25.079Z,94.60
2018-07-19T21:36:56.364Z,94.40
2018-07-19T21:39:25.474Z,94.30
2018-07-19T21:41:54.588Z,94.30
2018-07-19T21:44:24.203Z,94.20
2018-07-19T21:46:53.391Z,94.30
2018-07-19T21:49:22.514Z,94.10
2018-07-19T21:51:51.578Z,94.20
2018-07-19T21:54:20.691Z,94.10
2018-07-19T21:56:50.023Z,94.10
2018-07-19T21:59:20.055Z,94.10
2018-07-19T22:01:49.151Z,94.00
2018-07-19T22:04:18.266Z,93.90
2018-07-19T22:06:47.315Z,93.80
2018-07-19T22:09:16.602Z,93.50
2018-07-19T22:11:45.694Z,93.20
2018-07-19T22:16:43.503Z,93.10
2018-07-19T22:19:12.659Z,92.60
2018-07-19T22:21:42.861Z,92.60
2018-07-19T22:52:39.186Z,92.50
2018-07-19T22:55:08.277Z,92.70
2018-07-19T22:57:37.356Z,92.70
2018-07-19T23:00:06.455Z,93.10
2018-07-19T23:02:35.684Z,92.90
2018-07-19T23:05:08.542Z,92.90
2018-07-19T23:07:37.708Z,92.90
2018-07-19T23:10:06.802Z,93.30
2018-07-19T23:12:35.850Z,93.40
2018-07-19T23:15:05.325Z,93.40
2018-07-19T23:17:34.370Z,93.60
2018-07-19T23:20:03.419Z,93.90
2018-07-19T23:22:32.520Z,93.90
2018-07-19T23:25:03.650Z,93.90
2018-07-19T23:27:32.769Z,94.20
2018-07-19T23:32:30.519Z,94.30
2018-07-19T23:34:59.667Z,94.10
2018-07-19T23:37:34.079Z,94.70
2018-07-19T23:40:07.265Z,94.80
2018-07-19T23:42:40.168Z,94.70
2018-07-19T23:45:30.591Z,94.40
2018-07-19T23:47:59.655Z,94.80
2018-07-19T23:50:28.706Z,94.60
2018-07-19T23:52:57.771Z,94.60
2018-07-19T23:55:26.857Z,95.10
2018-07-19T23:57:55.931Z,95.00
